Lake Minchumina, Alaska
Current Conditions -  °F | °C
As of 3:10 AM on Friday 28 Nov 2014 (Local Time) from PAFS Reporting Station
Light Snow Light Snow  
Wind Chill:   Ceiling: 3000
Heat Index:   Visibility: 10mi
Dew Point: -4°   Wind: 3mph
Humidity: 78%   Direction: 60°ENE
Pressure: 30.19"   Gusts: NA
Location:  63.89°N, 152.36°W
Report Text: PAFS 281210Z AUTO 06003KT 10SM -SN OVC030 M17/M20 A3019 RMK AO2 TSNO SNB58 P0000 $
Loading
Personal Weather Stations






























Interactive Weather Map New forecast layout! Learn more

10-Day Weather Forecast

Advertisements
Track Severe Weather on mobile